Time;durP1;ratioP1;P1;durP2;ratioP2;P2;SDS_P1;SDS_P2;PMS_P1;PMS_P2;Temp;Humidity;BMP_temperature;BMP_pressure;BME280_temperature;BME280_humidity;BME280_pressure;Samples;Min_cycle;Max_cycle;Signal;HPM_P1;HPM_P2
2022/03/19 00:02:06;;;;;;;5.37;5.07;;;10.20;99.90;;;;;;5011522;28;20233;-67
2022/03/19 00:04:33;;;;;;;5.90;5.60;;;10.20;99.90;;;;;;5010857;28;20648;-66
2022/03/19 00:07:07;;;;;;;5.80;5.50;;;10.30;99.90;;;;;;5004055;28;20233;-67
2022/03/19 00:09:34;;;;;;;5.93;5.53;;;10.10;99.90;;;;;;4996862;28;20237;-66
2022/03/19 00:12:01;;;;;;;5.40;5.10;;;10.00;99.90;;;;;;5004642;28;20324;-67
2022/03/19 00:14:29;;;;;;;4.97;4.78;;;10.00;99.90;;;;;;5010427;28;20280;-67
2022/03/19 00:16:59;;;;;;;5.70;5.40;;;10.00;99.90;;;;;;5019299;28;20274;-66
2022/03/19 00:19:27;;;;;;;5.47;5.17;;;10.10;99.90;;;;;;5009832;28;20209;-66
2022/03/19 00:21:54;;;;;;;5.30;5.00;;;10.20;99.90;;;;;;5012855;28;20222;-66
2022/03/19 00:24:21;;;;;;;5.28;4.97;;;10.00;99.90;;;;;;5012755;28;20233;-66
2022/03/19 00:26:48;;;;;;;5.47;5.17;;;10.00;99.90;;;;;;5019097;28;20205;-66
2022/03/19 00:29:15;;;;;;;5.40;5.10;;;9.90;99.90;;;;;;5021538;28;20269;-67
2022/03/19 00:31:41;;;;;;;4.93;4.73;;;10.00;99.90;;;;;;5031368;28;20357;-66
2022/03/19 00:34:10;;;;;;;5.57;5.27;;;10.00;99.90;;;;;;5006511;28;20214;-67
2022/03/19 00:36:37;;;;;;;5.60;5.30;;;10.00;99.90;;;;;;5009624;28;20212;-67
2022/03/19 00:39:03;;;;;;;5.80;5.50;;;10.00;99.90;;;;;;5008163;28;20206;-67
2022/03/19 00:41:30;;;;;;;5.67;5.37;;;10.10;99.90;;;;;;5005954;28;20842;-66
2022/03/19 00:43:57;;;;;;;6.22;5.90;;;10.10;99.90;;;;;;5003641;28;20220;-67
2022/03/19 00:46:24;;;;;;;5.70;5.40;;;10.10;99.90;;;;;;5002364;28;20285;-66
2022/03/19 00:48:51;;;;;;;5.73;5.43;;;10.10;99.90;;;;;;5010681;28;20296;-67
2022/03/19 00:51:19;;;;;;;6.00;5.70;;;10.10;99.90;;;;;;5015952;28;20216;-67
2022/03/19 00:53:46;;;;;;;6.30;6.00;;;10.10;99.90;;;;;;5006125;28;20209;-67
2022/03/19 00:56:13;;;;;;;5.90;5.60;;;10.00;99.90;;;;;;5009373;28;20233;-67
2022/03/19 00:58:40;;;;;;;6.07;5.73;;;10.10;99.90;;;;;;5008749;28;20217;-66
2022/03/19 01:01:07;;;;;;;6.87;6.47;;;10.10;99.90;;;;;;5016950;28;20228;-67
2022/03/19 01:03:34;;;;;;;6.30;6.00;;;10.10;99.90;;;;;;5021388;28;20742;-66
2022/03/19 01:06:01;;;;;;;6.27;5.97;;;10.00;99.90;;;;;;5026477;28;20263;-67
2022/03/19 01:08:29;;;;;;;6.30;6.00;;;10.10;99.90;;;;;;5019621;28;20229;-67
2022/03/19 01:10:56;;;;;;;6.50;6.20;;;10.10;99.90;;;;;;4987652;28;20202;-67
2022/03/19 01:13:23;;;;;;;7.50;7.10;;;10.10;99.90;;;;;;4996382;28;20321;-66
2022/03/19 01:15:50;;;;;;;7.50;7.10;;;10.10;99.90;;;;;;4993370;28;20230;-67
2022/03/19 01:18:17;;;;;;;6.47;6.17;;;10.00;99.90;;;;;;4994554;28;20293;-67
2022/03/19 01:20:44;;;;;;;6.70;6.30;;;10.00;99.90;;;;;;4994628;28;20319;-66
2022/03/19 01:23:10;;;;;;;7.30;6.90;;;10.00;99.90;;;;;;4993427;28;20677;-68
2022/03/19 01:25:39;;;;;;;7.00;6.60;;;10.00;99.90;;;;;;4995454;28;20631;-67
2022/03/19 01:28:07;;;;;;;7.13;6.73;;;9.90;99.90;;;;;;4994261;28;20214;-65
2022/03/19 01:30:34;;;;;;;7.40;7.00;;;9.90;99.90;;;;;;4995073;28;20216;-66
2022/03/19 01:33:01;;;;;;;6.60;6.30;;;9.90;99.90;;;;;;4993439;28;20667;-65
2022/03/19 01:35:27;;;;;;;7.70;7.20;;;9.90;99.90;;;;;;4994780;28;20343;-65
2022/03/19 01:37:54;;;;;;;7.60;7.20;;;9.90;99.90;;;;;;4994397;28;20242;-67
2022/03/19 01:40:21;;;;;;;6.90;6.50;;;9.80;99.90;;;;;;4993653;28;20252;-66
2022/03/19 01:42:51;;;;;;;7.33;6.93;;;9.80;99.90;;;;;;4992266;28;20845;-67
2022/03/19 01:45:20;;;;;;;7.50;7.10;;;9.80;99.90;;;;;;4993685;28;20229;-66
2022/03/19 01:47:48;;;;;;;7.50;7.10;;;9.70;99.90;;;;;;4993853;28;20206;-66
2022/03/19 01:50:17;;;;;;;7.20;6.90;;;9.70;99.90;;;;;;4993339;28;20245;-66
2022/03/19 01:52:44;;;;;;;8.37;7.97;;;9.70;99.90;;;;;;4992122;28;20225;-66
2022/03/19 01:55:12;;;;;;;8.40;8.00;;;9.70;99.90;;;;;;4994351;28;20686;-66
2022/03/19 01:57:43;;;;;;;7.87;7.47;;;9.70;99.90;;;;;;4994348;28;20308;-68
2022/03/19 02:00:16;;;;;;;7.80;7.40;;;9.70;99.90;;;;;;4993730;28;20213;-68
2022/03/19 02:02:43;;;;;;;8.00;7.60;;;9.80;99.90;;;;;;4992965;28;20665;-67
2022/03/19 02:05:14;;;;;;;8.33;7.93;;;9.70;99.90;;;;;;4993268;28;20293;-66
2022/03/19 02:07:41;;;;;;;7.50;7.10;;;9.70;99.90;;;;;;4993330;28;20198;-66
2022/03/19 02:10:09;;;;;;;8.27;7.85;;;9.70;99.90;;;;;;4993063;28;20760;-66
2022/03/19 02:12:36;;;;;;;8.60;8.10;;;9.70;99.90;;;;;;4994701;28;20265;-67
2022/03/19 02:15:04;;;;;;;8.43;7.93;;;9.70;99.90;;;;;;5009840;28;20240;-67
2022/03/19 02:17:32;;;;;;;8.27;7.77;;;9.70;99.90;;;;;;4998917;28;20210;-67
2022/03/19 02:20:01;;;;;;;8.33;7.93;;;9.60;99.90;;;;;;4993155;28;20241;-66
2022/03/19 02:22:29;;;;;;;8.67;8.17;;;9.60;99.90;;;;;;4991861;28;20281;-67
2022/03/19 02:27:43;;;;;;;8.53;8.03;;;9.60;99.90;;;;;;4992731;28;20209;-67
2022/03/19 02:30:11;;;;;;;8.43;7.93;;;9.50;99.90;;;;;;4992434;28;20205;-66
2022/03/19 02:32:40;;;;;;;7.90;7.40;;;9.50;99.90;;;;;;4989710;28;20878;-65
2022/03/19 02:35:08;;;;;;;8.05;7.55;;;9.50;99.90;;;;;;4994261;28;20229;-67
2022/03/19 02:37:40;;;;;;;8.20;7.80;;;9.40;99.90;;;;;;4995513;28;20206;-67
2022/03/19 02:40:10;;;;;;;8.03;7.60;;;9.50;99.90;;;;;;4993336;28;20216;-66
2022/03/19 02:42:37;;;;;;;8.23;7.83;;;9.40;99.90;;;;;;4991257;28;20868;-67
2022/03/19 02:45:05;;;;;;;7.63;7.23;;;9.40;99.90;;;;;;4992319;28;20550;-67
2022/03/19 02:47:56;;;;;;;8.40;7.90;;;9.40;99.90;;;;;;4992330;28;20283;-66
2022/03/19 02:50:24;;;;;;;7.20;6.80;;;9.40;99.90;;;;;;4991775;28;20664;-67
2022/03/19 02:52:51;;;;;;;8.33;7.90;;;9.50;99.90;;;;;;4992615;28;20226;-64
2022/03/19 02:55:19;;;;;;;7.80;7.40;;;9.50;99.90;;;;;;4983889;28;20246;-67
2022/03/19 02:57:46;;;;;;;8.13;7.73;;;9.50;99.90;;;;;;4992223;28;20210;-67
2022/03/19 03:00:14;;;;;;;8.00;7.50;;;9.30;99.90;;;;;;4992255;28;20632;-65
2022/03/19 03:02:41;;;;;;;7.13;6.77;;;9.30;99.90;;;;;;4990770;28;20304;-65
2022/03/19 03:05:10;;;;;;;8.20;7.80;;;9.30;99.90;;;;;;4991927;28;20252;-65
2022/03/19 03:07:37;;;;;;;7.93;7.53;;;9.30;99.90;;;;;;4988273;28;20233;-66
2022/03/19 03:10:05;;;;;;;7.40;7.00;;;9.40;99.90;;;;;;4987206;28;20562;-65
2022/03/19 03:12:34;;;;;;;7.90;7.50;;;9.30;99.90;;;;;;4988918;28;20762;-67
2022/03/19 03:15:00;;;;;;;7.53;7.13;;;9.30;99.90;;;;;;4989736;28;20209;-65
2022/03/19 03:17:29;;;;;;;6.90;6.50;;;9.30;99.90;;;;;;4990260;28;20811;-65
2022/03/19 03:19:56;;;;;;;7.10;6.70;;;9.30;99.90;;;;;;4989719;28;20245;-65
2022/03/19 03:22:23;;;;;;;7.03;6.67;;;9.30;99.90;;;;;;4989125;28;20230;-65
2022/03/19 03:24:49;;;;;;;7.87;7.47;;;9.20;99.90;;;;;;4989933;28;20241;-65
2022/03/19 03:27:16;;;;;;;8.00;7.60;;;9.30;99.90;;;;;;4993499;28;20206;-67
2022/03/19 03:29:45;;;;;;;8.00;7.50;;;9.20;99.90;;;;;;4994283;28;20306;-66
2022/03/19 03:32:11;;;;;;;7.20;6.80;;;9.20;99.90;;;;;;4995731;28;20731;-66
2022/03/19 03:34:39;;;;;;;7.57;7.17;;;9.20;99.90;;;;;;4998695;28;20341;-67
2022/03/19 03:37:07;;;;;;;7.57;7.17;;;9.20;99.90;;;;;;5000773;28;20226;-66
2022/03/19 03:39:33;;;;;;;7.30;6.90;;;9.20;99.90;;;;;;5001129;28;20280;-66
2022/03/19 03:42:00;;;;;;;8.00;7.60;;;9.20;99.90;;;;;;4995653;28;20321;-65
2022/03/19 03:44:27;;;;;;;8.10;7.60;;;9.20;99.90;;;;;;4995957;28;20289;-67
2022/03/19 03:46:55;;;;;;;7.87;7.40;;;9.20;99.90;;;;;;4995518;28;20577;-66
2022/03/19 03:49:22;;;;;;;8.10;7.60;;;9.10;99.90;;;;;;4994377;28;20216;-65
2022/03/19 03:51:49;;;;;;;7.37;6.97;;;9.10;99.90;;;;;;4994464;28;20309;-64
2022/03/19 03:54:16;;;;;;;7.40;7.00;;;9.10;99.90;;;;;;4994719;28;20209;-64
2022/03/19 03:56:43;;;;;;;7.00;6.60;;;9.00;99.90;;;;;;4995018;28;20234;-66
2022/03/19 03:59:10;;;;;;;8.23;7.73;;;9.10;99.90;;;;;;4991767;28;20748;-65
2022/03/19 04:01:37;;;;;;;7.20;6.80;;;9.00;99.90;;;;;;4990598;28;20321;-66
2022/03/19 04:04:05;;;;;;;7.33;6.93;;;8.90;99.90;;;;;;4992351;28;20229;-65
2022/03/19 04:06:32;;;;;;;7.53;7.13;;;8.80;99.90;;;;;;4996234;28;20206;-67
2022/03/19 04:08:59;;;;;;;7.60;7.20;;;8.80;99.90;;;;;;4995182;28;20246;-65
2022/03/19 04:11:26;;;;;;;7.07;6.67;;;8.80;99.90;;;;;;4994588;28;20298;-66
2022/03/19 04:13:53;;;;;;;7.93;7.53;;;8.80;99.90;;;;;;4994563;28;20218;-66
2022/03/19 04:16:19;;;;;;;7.57;7.17;;;8.90;99.90;;;;;;4994738;28;20321;-65
2022/03/19 04:18:46;;;;;;;8.77;8.27;;;8.90;99.90;;;;;;4994830;28;20296;-66
2022/03/19 04:21:15;;;;;;;7.93;7.53;;;8.80;99.90;;;;;;4994663;28;20299;-67
2022/03/19 04:23:41;;;;;;;8.70;8.20;;;8.80;99.90;;;;;;4993812;28;20700;-67
2022/03/19 04:26:08;;;;;;;8.87;8.37;;;8.80;99.90;;;;;;4994367;28;20694;-66
2022/03/19 04:28:35;;;;;;;8.33;7.93;;;8.70;99.90;;;;;;4994876;28;20313;-66
2022/03/19 04:31:02;;;;;;;7.90;7.50;;;8.70;99.90;;;;;;4994851;28;20213;-65
2022/03/19 04:33:29;;;;;;;6.67;6.37;;;8.60;99.90;;;;;;4994058;28;20328;-66
2022/03/19 04:38:41;;;;;;;6.37;6.07;;;8.50;99.90;;;;;;4990585;28;20256;-65
2022/03/19 04:41:09;;;;;;;7.07;6.67;;;8.60;99.90;;;;;;4993714;28;20292;-65
2022/03/19 04:43:36;;;;;;;7.30;6.90;;;8.50;99.90;;;;;;4993529;28;20212;-66
2022/03/19 04:46:03;;;;;;;6.90;6.50;;;8.40;99.90;;;;;;4994671;28;20205;-66
2022/03/19 04:48:30;;;;;;;6.27;5.87;;;8.30;99.90;;;;;;4993553;28;20695;-65
2022/03/19 04:50:57;;;;;;;7.70;7.30;;;8.40;99.90;;;;;;4994089;28;20218;-65
2022/03/19 04:53:25;;;;;;;7.53;7.13;;;8.40;99.90;;;;;;4993313;28;20230;-66
2022/03/19 04:55:53;;;;;;;8.13;7.70;;;8.30;99.90;;;;;;4994357;28;20226;-65
2022/03/19 04:58:20;;;;;;;7.00;6.60;;;8.20;99.90;;;;;;4993603;28;20698;-65
2022/03/19 05:00:47;;;;;;;8.03;7.53;;;8.20;99.90;;;;;;4993726;28;20213;-66
2022/03/19 05:03:14;;;;;;;8.13;7.63;;;8.20;99.90;;;;;;4992803;28;20868;-64
2022/03/19 05:05:41;;;;;;;7.70;7.30;;;8.10;99.90;;;;;;4994239;28;20210;-64
2022/03/19 05:08:08;;;;;;;7.53;7.03;;;8.10;99.90;;;;;;4993974;28;20205;-67
2022/03/19 05:13:21;;;;;;;7.47;7.07;;;8.10;99.90;;;;;;5015055;23;20290;-65
2022/03/19 05:15:48;;;;;;;7.80;7.40;;;8.20;99.90;;;;;;5033946;28;20204;-66
2022/03/19 05:18:15;;;;;;;7.70;7.30;;;8.20;99.90;;;;;;5063160;28;20222;-69
2022/03/19 05:20:42;;;;;;;6.97;6.57;;;8.30;99.90;;;;;;5063928;28;20232;-67
2022/03/19 05:23:08;;;;;;;7.30;6.90;;;8.30;99.90;;;;;;5047277;28;20225;-70
2022/03/19 05:25:35;;;;;;;8.10;7.67;;;8.40;99.90;;;;;;5042727;28;20201;-67
2022/03/19 05:28:02;;;;;;;7.30;6.90;;;8.40;99.90;;;;;;5034903;28;20298;-68
2022/03/19 05:30:31;;;;;;;7.23;6.83;;;8.30;99.90;;;;;;5033804;28;20331;-67
2022/03/19 05:32:58;;;;;;;7.55;7.15;;;8.40;99.90;;;;;;5033747;28;20590;-67
2022/03/19 05:35:26;;;;;;;9.10;8.50;;;8.40;99.90;;;;;;5033789;28;20201;-68
2022/03/19 05:37:53;;;;;;;9.30;8.60;;;8.40;99.90;;;;;;5033866;28;20316;-66
2022/03/19 05:40:20;;;;;;;8.88;8.38;;;8.20;99.90;;;;;;5032940;28;20232;-67
2022/03/19 05:42:47;;;;;;;9.13;8.53;;;8.20;99.90;;;;;;5032807;28;20205;-69
2022/03/19 05:45:15;;;;;;;7.80;7.40;;;8.20;99.90;;;;;;5033900;28;20272;-68
2022/03/19 05:47:43;;;;;;;8.15;7.65;;;8.20;99.90;;;;;;5034157;28;20201;-66
2022/03/19 05:50:11;;;;;;;8.47;7.97;;;8.20;99.90;;;;;;5033025;28;20577;-68
2022/03/19 05:52:39;;;;;;;7.70;7.30;;;8.20;99.90;;;;;;5033343;28;20207;-67
2022/03/19 05:55:08;;;;;;;7.63;7.23;;;8.30;99.90;;;;;;5033276;28;20736;-67
2022/03/19 05:57:35;;;;;;;8.27;7.77;;;8.40;99.90;;;;;;5034408;28;20260;-66
2022/03/19 06:00:02;;;;;;;8.00;7.60;;;8.40;99.90;;;;;;5033248;28;20200;-68
2022/03/19 06:02:29;;;;;;;7.53;7.13;;;8.50;99.90;;;;;;5032770;28;20246;-67
2022/03/19 06:04:57;;;;;;;7.97;7.57;;;8.50;99.90;;;;;;5033036;28;20304;-70
2022/03/19 06:07:24;;;;;;;7.50;7.00;;;8.50;99.90;;;;;;5036074;28;20239;-70
2022/03/19 06:09:51;;;;;;;7.63;7.13;;;8.60;99.90;;;;;;5034699;28;20281;-66
2022/03/19 06:12:18;;;;;;;8.30;7.80;;;8.60;99.90;;;;;;5035302;28;20204;-69
2022/03/19 06:14:45;;;;;;;7.37;6.97;;;8.60;99.90;;;;;;5032446;28;20658;-68
2022/03/19 06:17:11;;;;;;;7.70;7.30;;;8.60;99.90;;;;;;5034978;28;20229;-68
2022/03/19 06:19:38;;;;;;;7.33;6.93;;;8.60;99.90;;;;;;5041397;28;20288;-68
2022/03/19 06:22:07;;;;;;;7.20;6.80;;;8.60;99.90;;;;;;5034686;28;20197;-67
2022/03/19 06:24:33;;;;;;;7.00;6.60;;;8.70;99.90;;;;;;5034274;28;20235;-67
2022/03/19 06:27:00;;;;;;;6.90;6.50;;;8.70;99.90;;;;;;5034447;28;20307;-67
2022/03/19 06:29:27;;;;;;;6.77;6.37;;;8.80;99.90;;;;;;5034441;28;20699;-66
2022/03/19 06:31:54;;;;;;;6.97;6.57;;;8.80;99.90;;;;;;5033950;28;20215;-68
2022/03/19 06:34:21;;;;;;;7.00;6.60;;;8.90;99.90;;;;;;5033646;28;20762;-66
2022/03/19 06:39:34;;;;;;;7.03;6.63;;;9.00;99.90;;;;;;5034235;28;20886;-69
2022/03/19 06:42:01;;;;;;;7.23;6.83;;;9.00;99.90;;;;;;5034051;28;20240;-69
2022/03/19 06:44:28;;;;;;;6.40;6.10;;;9.10;99.90;;;;;;5034642;28;20260;-70
2022/03/19 06:46:54;;;;;;;6.73;6.33;;;9.20;99.90;;;;;;5035005;28;20205;-68
2022/03/19 06:49:21;;;;;;;6.00;5.70;;;9.30;99.90;;;;;;5034153;28;20208;-68
2022/03/19 06:51:48;;;;;;;7.47;7.07;;;9.30;99.90;;;;;;5035734;28;20232;-68
2022/03/19 06:54:15;;;;;;;8.03;7.53;;;9.10;99.90;;;;;;5036420;28;20256;-68
2022/03/19 06:56:43;;;;;;;7.37;6.97;;;8.80;99.90;;;;;;5037226;28;20379;-69
2022/03/19 06:59:10;;;;;;;6.67;6.27;;;8.60;99.90;;;;;;5034954;28;20236;-68
2022/03/19 07:01:37;;;;;;;7.87;7.37;;;8.50;99.90;;;;;;5035622;28;20272;-67
2022/03/19 07:04:06;;;;;;;7.97;7.47;;;8.40;99.90;;;;;;5033769;28;20256;-68
2022/03/19 07:06:34;;;;;;;7.93;7.53;;;8.30;99.90;;;;;;5032735;28;20209;-69
2022/03/19 07:09:00;;;;;;;7.07;6.63;;;8.10;99.90;;;;;;5044314;28;20204;-69
2022/03/19 07:11:27;;;;;;;6.97;6.57;;;8.20;99.90;;;;;;5047229;28;20243;-67
2022/03/19 07:13:55;;;;;;;7.30;6.90;;;8.30;99.90;;;;;;5032156;28;20236;-69
2022/03/19 07:16:23;;;;;;;7.35;6.95;;;8.30;99.90;;;;;;5032325;28;20215;-67
2022/03/19 07:18:50;;;;;;;7.88;7.38;;;8.20;99.90;;;;;;5031711;28;20282;-69
2022/03/19 07:21:17;;;;;;;7.40;7.00;;;8.20;99.90;;;;;;5031438;28;20753;-69
2022/03/19 07:23:44;;;;;;;7.72;7.22;;;8.20;99.90;;;;;;5030776;28;20444;-68
2022/03/19 07:26:11;;;;;;;8.57;8.00;;;8.30;99.90;;;;;;5032494;28;20720;-68
2022/03/19 07:28:38;;;;;;;7.23;6.83;;;8.40;99.90;;;;;;5033375;28;20282;-68
2022/03/19 07:31:06;;;;;;;6.70;6.30;;;8.40;99.90;;;;;;5027245;28;20618;-69
2022/03/19 07:33:34;;;;;;;7.83;7.33;;;8.50;99.90;;;;;;5028002;28;20308;-68
2022/03/19 07:36:02;;;;;;;7.20;6.80;;;8.60;99.90;;;;;;5025632;28;20274;-69
2022/03/19 07:38:30;;;;;;;8.00;7.47;;;8.80;99.90;;;;;;5022605;28;20217;-67
2022/03/19 07:43:42;;;;;;;6.50;6.10;;;8.80;99.90;;;;;;5019062;28;20220;-68
2022/03/19 07:46:11;;;;;;;7.27;6.87;;;8.90;99.90;;;;;;5020020;28;20566;-68
2022/03/19 07:48:38;;;;;;;7.40;7.00;;;9.00;99.90;;;;;;5020894;28;20198;-69
2022/03/19 07:51:05;;;;;;;7.30;6.80;;;9.10;99.90;;;;;;5017896;28;20300;-68
2022/03/19 07:53:32;;;;;;;7.70;7.30;;;9.20;99.90;;;;;;5022482;28;20221;-67
2022/03/19 07:55:59;;;;;;;6.90;6.50;;;9.10;99.90;;;;;;5025146;28;20220;-69
2022/03/19 07:58:26;;;;;;;6.87;6.47;;;9.10;99.90;;;;;;5026561;28;20260;-69
2022/03/19 08:00:53;;;;;;;6.57;6.17;;;9.30;99.90;;;;;;5037949;28;20236;-69
2022/03/19 08:03:21;;;;;;;7.23;6.83;;;9.50;99.90;;;;;;5028131;28;20691;-68
2022/03/19 08:05:48;;;;;;;7.20;6.80;;;9.60;99.90;;;;;;5038622;28;20208;-68
2022/03/19 08:08:15;;;;;;;7.13;6.73;;;9.60;99.90;;;;;;5033757;28;20296;-69
2022/03/19 08:10:42;;;;;;;7.03;6.63;;;9.80;99.90;;;;;;5033503;28;20205;-68
2022/03/19 08:13:10;;;;;;;6.67;6.37;;;10.00;99.90;;;;;;5021957;28;20228;-68
2022/03/19 08:15:40;;;;;;;6.57;6.17;;;10.00;99.90;;;;;;5025736;28;20197;-68
2022/03/19 08:18:09;;;;;;;7.10;6.70;;;10.10;99.90;;;;;;5029526;28;20225;-67
2022/03/19 08:20:37;;;;;;;7.57;7.17;;;10.20;99.90;;;;;;5041397;28;20592;-68
2022/03/19 08:23:04;;;;;;;6.37;6.07;;;10.30;99.90;;;;;;5043200;28;20256;-66
2022/03/19 08:25:31;;;;;;;6.50;6.20;;;10.40;99.90;;;;;;5037537;28;20244;-68
2022/03/19 08:27:59;;;;;;;6.93;6.53;;;10.60;99.90;;;;;;5034308;28;20205;-68
2022/03/19 08:30:26;;;;;;;6.57;6.17;;;10.60;99.90;;;;;;5033190;28;20675;-68
2022/03/19 08:32:53;;;;;;;7.13;6.73;;;10.80;99.90;;;;;;5042246;28;20667;-69
2022/03/19 08:35:20;;;;;;;7.32;6.93;;;10.90;99.90;;;;;;5028241;28;20289;-69
2022/03/19 08:37:48;;;;;;;7.47;6.93;;;10.80;99.90;;;;;;5035109;28;20227;-68
2022/03/19 08:40:17;;;;;;;6.68;6.28;;;10.80;99.90;;;;;;5034142;28;20295;-68
2022/03/19 08:42:51;;;;;;;6.90;6.50;;;10.80;99.90;;;;;;5034442;28;20223;-68
2022/03/19 08:45:18;;;;;;;6.30;6.00;;;10.90;99.90;;;;;;5026739;28;20841;-69
2022/03/19 08:47:45;;;;;;;7.10;6.70;;;11.10;99.90;;;;;;5034418;28;20678;-68
2022/03/19 08:50:12;;;;;;;6.73;6.33;;;11.30;99.90;;;;;;5031523;28;20201;-68
2022/03/19 08:52:39;;;;;;;7.38;6.88;;;11.40;99.90;;;;;;5031920;28;20200;-67
2022/03/19 08:55:09;;;;;;;6.50;6.20;;;11.50;99.90;;;;;;5031585;28;20296;-67
2022/03/19 08:57:37;;;;;;;6.38;6.03;;;11.60;99.90;;;;;;5037369;28;20311;-68
2022/03/19 09:00:05;;;;;;;6.73;6.33;;;11.70;99.90;;;;;;5040560;28;20654;-69
2022/03/19 09:02:32;;;;;;;6.70;6.30;;;11.80;99.90;;;;;;5036225;28;20259;-68
2022/03/19 09:04:59;;;;;;;7.10;6.70;;;11.90;99.90;;;;;;5037800;28;20291;-68
2022/03/19 09:07:26;;;;;;;6.83;6.43;;;11.80;99.90;;;;;;5036139;28;20197;-67
2022/03/19 09:09:53;;;;;;;6.80;6.40;;;11.90;99.90;;;;;;5034637;28;20239;-67
2022/03/19 09:12:25;;;;;;;7.40;6.97;;;12.10;99.90;;;;;;5035066;28;20201;-68
2022/03/19 09:14:52;;;;;;;6.67;6.30;;;12.10;99.90;;;;;;5034066;28;20282;-69
2022/03/19 09:17:19;;;;;;;6.50;6.10;;;12.10;99.90;;;;;;5032389;28;20221;-67
2022/03/19 09:19:46;;;;;;;7.18;6.78;;;12.20;99.90;;;;;;5034191;28;20283;-68
2022/03/19 09:22:13;;;;;;;7.17;6.77;;;12.20;99.90;;;;;;5033518;28;20236;-68
2022/03/19 09:24:40;;;;;;;6.78;6.38;;;12.40;99.90;;;;;;5032484;28;20255;-67
2022/03/19 09:27:07;;;;;;;6.10;5.80;;;12.60;99.90;;;;;;5031821;28;20287;-66
2022/03/19 09:29:35;;;;;;;6.67;6.27;;;12.60;99.90;;;;;;5033963;28;20207;-67
2022/03/19 09:32:02;;;;;;;6.50;6.10;;;12.80;99.90;;;;;;5026123;28;20200;-66
2022/03/19 09:34:29;;;;;;;6.60;6.20;;;12.90;99.90;;;;;;5029195;28;20256;-67
2022/03/19 09:36:56;;;;;;;6.40;6.10;;;12.90;99.90;;;;;;5028982;28;20295;-67
2022/03/19 09:39:23;;;;;;;7.00;6.40;;;13.00;99.90;;;;;;5034390;28;20770;-67
2022/03/19 09:41:50;;;;;;;6.27;5.90;;;13.10;99.90;;;;;;5034967;28;20209;-67
2022/03/19 09:44:17;;;;;;;6.53;6.23;;;13.20;99.90;;;;;;5028532;28;20248;-67
2022/03/19 09:46:47;;;;;;;5.80;5.50;;;13.20;99.90;;;;;;5033264;28;20253;-68
2022/03/19 09:49:15;;;;;;;6.63;6.23;;;13.20;99.90;;;;;;5034480;28;20224;-68
2022/03/19 09:51:44;;;;;;;6.40;6.00;;;13.30;99.90;;;;;;5032390;28;20292;-68
2022/03/19 09:54:12;;;;;;;6.50;6.10;;;13.30;99.90;;;;;;5034098;28;20240;-68
2022/03/19 09:56:39;;;;;;;6.07;5.78;;;13.50;99.90;;;;;;5046336;28;20268;-67
2022/03/19 09:59:06;;;;;;;5.70;5.20;;;13.60;99.90;;;;;;5040452;28;20266;-67
2022/03/19 10:01:33;;;;;;;5.87;5.57;;;13.70;99.90;;;;;;5033794;28;20259;-67
2022/03/19 10:04:07;;;;;;;5.70;5.40;;;13.90;99.90;;;;;;5036149;28;20232;-68
2022/03/19 10:09:21;;;;;;;6.10;5.70;;;14.20;99.90;;;;;;5034193;28;20272;-67
2022/03/19 10:11:49;;;;;;;5.83;5.53;;;14.30;99.90;;;;;;5033842;28;20219;-67
2022/03/19 10:14:22;;;;;;;5.30;5.00;;;14.10;99.90;;;;;;5029788;28;20232;-67
2022/03/19 10:16:51;;;;;;;5.03;4.73;;;14.10;99.90;;;;;;5050213;28;20260;-67
2022/03/19 10:19:20;;;;;;;4.93;4.67;;;14.30;99.90;;;;;;5042185;28;20224;-66
2022/03/19 10:21:48;;;;;;;4.80;4.60;;;14.60;99.90;;;;;;5047048;28;20197;-68
2022/03/19 10:24:23;;;;;;;5.67;5.37;;;14.90;99.90;;;;;;5031447;28;20239;-67
2022/03/19 10:26:51;;;;;;;5.35;5.05;;;15.00;99.90;;;;;;5046940;28;20201;-67
2022/03/19 10:29:27;;;;;;;4.87;4.67;;;15.00;99.90;;;;;;5036670;28;20315;-68
2022/03/19 10:32:00;;;;;;;5.37;5.07;;;15.30;99.90;;;;;;5034702;28;20291;-69
2022/03/19 10:34:30;;;;;;;5.07;4.77;;;15.40;99.90;;;;;;5033917;28;20288;-68
2022/03/19 10:36:57;;;;;;;5.15;4.85;;;15.40;99.90;;;;;;5034909;28;20227;-68
2022/03/19 10:39:26;;;;;;;5.30;5.00;;;15.30;99.90;;;;;;5032136;28;20311;-68
2022/03/19 10:41:55;;;;;;;4.93;4.73;;;15.30;99.90;;;;;;5033128;28;20208;-67
2022/03/19 10:44:24;;;;;;;4.70;4.50;;;15.50;99.90;;;;;;5033068;28;20312;-66
2022/03/19 10:46:52;;;;;;;4.65;4.45;;;15.60;99.90;;;;;;5032383;28;20651;-67
2022/03/19 10:49:22;;;;;;;4.45;4.25;;;15.70;99.90;;;;;;5033368;28;20255;-68
2022/03/19 10:51:52;;;;;;;5.37;5.07;;;15.80;99.90;;;;;;5031363;28;20266;-68
2022/03/19 10:54:19;;;;;;;4.75;4.55;;;15.90;99.90;;;;;;5032935;28;20706;-67
2022/03/19 10:56:47;;;;;;;5.25;4.95;;;16.00;99.90;;;;;;5034206;28;20577;-67
2022/03/19 10:59:15;;;;;;;4.47;4.27;;;16.00;99.90;;;;;;5033318;28;20655;-67
2022/03/19 11:01:42;;;;;;;4.40;4.20;;;16.10;99.90;;;;;;5033607;28;20709;-68
2022/03/19 11:04:10;;;;;;;4.65;4.35;;;16.20;99.90;;;;;;5033698;28;20223;-67
2022/03/19 11:06:39;;;;;;;4.40;4.20;;;16.40;99.90;;;;;;5034909;28;20232;-67
2022/03/19 11:09:10;;;;;;;3.63;3.43;;;16.50;99.90;;;;;;5032953;28;20210;-67
2022/03/19 11:11:43;;;;;;;3.70;3.50;;;16.60;99.90;;;;;;5034487;28;20197;-68
2022/03/19 11:14:14;;;;;;;4.00;3.80;;;16.70;99.90;;;;;;5033522;28;20650;-68
2022/03/19 11:16:42;;;;;;;4.22;4.03;;;16.80;99.90;;;;;;5033415;28;20200;-68
2022/03/19 11:19:11;;;;;;;3.90;3.60;;;16.80;99.90;;;;;;5032743;28;20216;-69
2022/03/19 11:21:38;;;;;;;3.67;3.47;;;16.90;99.90;;;;;;5032198;28;20251;-69
2022/03/19 11:24:13;;;;;;;3.78;3.58;;;17.00;99.90;;;;;;5031152;28;20760;-68
2022/03/19 11:26:41;;;;;;;4.00;3.80;;;17.00;99.90;;;;;;5031224;28;20205;-68
2022/03/19 11:29:08;;;;;;;3.70;3.50;;;17.00;99.90;;;;;;5031944;28;20691;-69
2022/03/19 11:31:35;;;;;;;3.85;3.65;;;17.00;99.90;;;;;;5032196;28;20211;-68
2022/03/19 11:34:17;;;;;;;4.10;3.80;;;17.00;99.90;;;;;;5030625;28;20267;-68
2022/03/19 11:36:55;;;;;;;4.43;4.20;;;17.00;99.90;;;;;;5032611;28;20635;-67
2022/03/19 11:39:24;;;;;;;4.00;3.80;;;16.90;99.90;;;;;;5032660;28;20209;-67
2022/03/19 11:41:52;;;;;;;4.33;3.80;;;16.90;99.90;;;;;;5031742;28;20905;-68
2022/03/19 11:44:20;;;;;;;3.80;3.60;;;17.10;99.90;;;;;;5028964;28;20661;-68
2022/03/19 11:46:56;;;;;;;3.67;3.47;;;17.20;99.80;;;;;;5032792;28;20201;-69
2022/03/19 11:49:45;;;;;;;3.38;3.17;;;17.20;98.20;;;;;;5024975;28;20215;-68
2022/03/19 11:52:17;;;;;;;3.20;3.00;;;17.00;96.40;;;;;;5037716;28;20268;-68
2022/03/19 11:55:05;;;;;;;3.20;3.00;;;16.80;95.50;;;;;;5024946;28;20229;-69
2022/03/19 11:57:48;;;;;;;3.10;2.90;;;16.70;94.70;;;;;;5025611;28;20197;-68
2022/03/19 12:00:17;;;;;;;2.63;2.53;;;16.70;94.70;;;;;;5020033;28;20360;-68
2022/03/19 12:03:03;;;;;;;3.10;3.00;;;16.80;94.40;;;;;;5025930;28;20209;-68
2022/03/19 12:05:31;;;;;;;3.10;2.90;;;16.70;94.00;;;;;;5026913;28;20201;-68
2022/03/19 12:08:06;;;;;;;2.80;2.70;;;16.70;94.40;;;;;;5027638;28;20224;-69
2022/03/19 12:10:54;;;;;;;3.10;2.90;;;16.70;94.80;;;;;;5027282;28;20226;-68
2022/03/19 12:13:49;;;;;;;2.87;2.77;;;16.80;95.20;;;;;;5017109;28;20265;-67
2022/03/19 12:16:37;;;;;;;4.53;3.20;;;17.00;94.60;;;;;;5018760;28;20204;-68
2022/03/19 12:19:04;;;;;;;3.03;2.83;;;16.90;94.50;;;;;;5028377;28;20217;-67
2022/03/19 12:21:35;;;;;;;3.10;2.92;;;16.70;94.90;;;;;;5022660;28;20614;-67
2022/03/19 12:24:27;;;;;;;3.40;3.20;;;16.60;95.30;;;;;;5027684;28;20317;-67
2022/03/19 12:26:56;;;;;;;3.30;3.00;;;16.40;95.20;;;;;;5023284;28;20285;-69
2022/03/19 12:29:25;;;;;;;3.00;2.80;;;16.40;95.60;;;;;;5031038;28;20668;-67
2022/03/19 12:31:54;;;;;;;2.80;2.70;;;16.30;95.30;;;;;;5043945;28;20212;-67
2022/03/19 12:34:23;;;;;;;2.57;2.47;;;16.30;94.90;;;;;;5026381;28;20271;-69
2022/03/19 12:36:50;;;;;;;2.67;2.53;;;16.40;95.40;;;;;;5021590;28;20595;-68
2022/03/19 12:39:18;;;;;;;2.67;2.57;;;16.40;95.90;;;;;;5026262;28;20319;-68
2022/03/19 12:41:45;;;;;;;2.80;2.60;;;16.50;96.70;;;;;;5025469;28;20209;-69
2022/03/19 12:44:21;;;;;;;3.50;3.20;;;16.70;96.30;;;;;;5031572;28;20278;-68
2022/03/19 12:46:54;;;;;;;3.22;3.08;;;16.80;96.10;;;;;;5029322;28;20215;-67
2022/03/19 12:49:21;;;;;;;3.30;3.10;;;16.70;96.20;;;;;;5030025;28;20268;-68
2022/03/19 12:51:49;;;;;;;3.20;3.00;;;16.70;96.10;;;;;;5024501;28;20209;-67
2022/03/19 12:54:20;;;;;;;3.00;2.80;;;16.50;96.00;;;;;;5015285;28;20699;-67
2022/03/19 12:56:49;;;;;;;3.20;3.00;;;16.60;97.00;;;;;;5021579;28;20521;-68
2022/03/19 12:59:23;;;;;;;3.53;3.33;;;16.50;96.50;;;;;;5025200;28;20225;-66
2022/03/19 13:01:50;;;;;;;3.20;3.00;;;16.40;95.90;;;;;;5027166;28;20189;-69
2022/03/19 13:04:22;;;;;;;3.87;3.57;;;16.60;97.30;;;;;;5034831;28;20653;-68
2022/03/19 13:06:49;;;;;;;3.50;3.30;;;16.60;96.50;;;;;;5034940;28;20589;-66
2022/03/19 13:09:28;;;;;;;3.40;3.20;;;16.80;96.80;;;;;;5028198;28;20193;-67
2022/03/19 13:11:54;;;;;;;3.67;3.47;;;16.80;96.30;;;;;;5015881;28;20237;-67
2022/03/19 13:14:24;;;;;;;3.67;3.47;;;16.80;96.90;;;;;;5019601;28;20278;-66
2022/03/19 13:16:54;;;;;;;3.97;3.77;;;16.80;96.70;;;;;;5015258;28;20237;-67